Time,TemperatureF,DewpointF,PressureIn,WindDirection,WindDirectionDegrees,WindSpeedMPH,WindSpeedGustMPH,Humidity,HourlyPrecipIn,Conditions,Clouds,dailyrainin,SoftwareType,DateUTC
2013-07-19 00:02:00,79.2,74.3,30.08,SSW,201,1.7,2.0,85,0.00,NA,NA,0.00,WeatherLink_script,2013-07-19 04:02:00,
2013-07-19 00:03:00,79.2,74.3,30.08,SSW,201,1.4,3.0,85,0.00,NA,NA,0.00,WeatherLink_script,2013-07-19 04:03:00,
2013-07-19 00:04:00,79.2,74.3,30.08,SSW,201,1.6,3.0,85,0.00,NA,NA,0.00,WeatherLink_script,2013-07-19 04:04:00,
2013-07-19 00:06:00,79.2,74.3,30.08,SSW,201,1.2,3.0,85,0.00,NA,NA,0.00,WeatherLink_script,2013-07-19 04:06:00,
2013-07-19 00:11:00,79.2,73.9,30.08,SSW,201,0.7,2.0,84,0.00,NA,NA,0.00,WeatherLink_script,2013-07-19 04:11:00,
2013-07-19 00:12:00,79.2,73.9,30.08,SSW,201,0.7,2.0,84,0.00,NA,NA,0.00,WeatherLink_script,2013-07-19 04:12:00,
2013-07-19 00:17:00,79.2,73.9,30.08,SSW,201,0.6,1.0,84,0.00,NA,NA,0.00,WeatherLink_script,2013-07-19 04:17:00,
2013-07-19 00:22:00,79.1,73.5,30.09,SSW,201,0.5,1.0,83,0.00,NA,NA,0.00,WeatherLink_script,2013-07-19 04:22:00,
2013-07-19 00:27:00,79.1,73.8,30.09,SSW,201,0.9,2.0,84,0.00,NA,NA,0.00,WeatherLink_script,2013-07-19 04:27:00,
2013-07-19 00:32:00,79.0,73.7,30.09,SSW,201,0.7,2.0,84,0.00,NA,NA,0.00,WeatherLink_script,2013-07-19 04:32:00,
2013-07-19 00:37:00,78.9,73.3,30.08,SSW,201,0.5,2.0,83,0.00,NA,NA,0.00,WeatherLink_script,2013-07-19 04:37:00,
2013-07-19 00:42:00,78.9,73.3,30.09,SSW,201,0.3,1.0,83,0.00,NA,NA,0.00,WeatherLink_script,2013-07-19 04:42:00,
2013-07-19 00:47:00,78.8,73.5,30.08,SSW,201,0.4,1.0,84,0.00,NA,NA,0.00,WeatherLink_script,2013-07-19 04:47:00,
2013-07-19 00:52:00,78.7,73.1,30.08,SSW,201,1.3,2.0,83,0.00,NA,NA,0.00,WeatherLink_script,2013-07-19 04:52:00,
2013-07-19 00:57:00,78.7,73.1,30.08,SSW,201,1.1,2.0,83,0.00,NA,NA,0.00,WeatherLink_script,2013-07-19 04:57:00,
2013-07-19 01:02:00,78.7,73.1,30.08,SSW,201,0.9,2.0,83,0.00,NA,NA,0.00,WeatherLink_script,2013-07-19 05:02:00,
2013-07-19 01:07:00,78.7,73.4,30.08,SSW,201,0.0,0.0,84,0.00,NA,NA,0.00,WeatherLink_script,2013-07-19 05:07:00,
2013-07-19 01:12:00,78.6,73.3,30.08,SSW,201,0.0,0.0,84,0.00,NA,NA,0.00,WeatherLink_script,2013-07-19 05:12:00,
2013-07-19 01:17:00,78.5,73.2,30.08,SSW,201,0.3,1.0,84,0.00,NA,NA,0.00,WeatherLink_script,2013-07-19 05:17:00,
2013-07-19 01:22:00,78.5,73.2,30.08,SSW,201,0.1,1.0,84,0.00,NA,NA,0.00,WeatherLink_script,2013-07-19 05:22:00,
2013-07-19 01:27:00,78.3,73.4,30.08,SSW,201,0.4,1.0,85,0.00,NA,NA,0.00,WeatherLink_script,2013-07-19 05:27:00,
2013-07-19 01:32:00,78.3,73.4,30.08,SSW,201,0.0,0.0,85,0.00,NA,NA,0.00,WeatherLink_script,2013-07-19 05:32:00,
2013-07-19 01:37:00,78.1,73.2,30.08,SSW,201,1.3,3.0,85,0.00,NA,NA,0.00,WeatherLink_script,2013-07-19 05:37:00,
2013-07-19 01:42:00,78.1,73.2,30.08,SSW,201,0.7,2.0,85,0.00,NA,NA,0.00,WeatherLink_script,2013-07-19 05:42:00,
2013-07-19 01:47:00,78.0,73.1,30.08,SSW,201,1.3,3.0,85,0.00,NA,NA,0.00,WeatherLink_script,2013-07-19 05:47:00,
2013-07-19 01:52:00,78.0,73.1,30.08,SSW,201,0.8,2.0,85,0.00,NA,NA,0.00,WeatherLink_script,2013-07-19 05:52:00,
2013-07-19 01:57:00,78.1,73.2,30.08,SSW,201,0.5,2.0,85,0.00,NA,NA,0.00,WeatherLink_script,2013-07-19 05:57:00,
2013-07-19 02:02:00,77.9,73.0,30.07,SSW,201,0.7,2.0,85,0.00,NA,NA,0.00,WeatherLink_script,2013-07-19 06:02:00,
2013-07-19 02:07:00,77.9,73.0,30.07,SSW,201,2.0,4.0,85,0.00,NA,NA,0.00,WeatherLink_script,2013-07-19 06:07:00,
2013-07-19 02:12:00,77.9,73.0,30.07,SSW,201,1.7,3.0,85,0.00,NA,NA,0.00,WeatherLink_script,2013-07-19 06:12:00,
2013-07-19 02:17:00,77.9,73.0,30.07,SSW,201,0.6,1.0,85,0.00,NA,NA,0.00,WeatherLink_script,2013-07-19 06:17:00,
2013-07-19 02:22:00,77.8,72.6,30.07,SSW,201,1.5,4.0,84,0.00,NA,NA,0.00,WeatherLink_script,2013-07-19 06:22:00,
2013-07-19 02:27:00,77.8,72.6,30.07,SW,222,2.0,3.0,84,0.00,NA,NA,0.00,WeatherLink_script,2013-07-19 06:27:00,
2013-07-19 02:32:00,77.8,72.6,30.06,SW,222,2.4,3.0,84,0.00,NA,NA,0.00,WeatherLink_script,2013-07-19 06:32:00,
2013-07-19 02:37:00,77.9,72.6,30.06,SW,222,2.2,3.0,84,0.00,NA,NA,0.00,WeatherLink_script,2013-07-19 06:37:00,
2013-07-19 02:42:00,77.9,72.7,30.06,SW,222,1.6,3.0,84,0.00,NA,NA,0.00,WeatherLink_script,2013-07-19 06:42:00,
2013-07-19 02:47:00,78.0,72.4,30.06,WSW,258,1.6,3.0,83,0.00,NA,NA,0.00,WeatherLink_script,2013-07-19 06:47:00,
2013-07-19 02:52:00,78.0,72.4,30.06,WSW,258,0.8,2.0,83,0.00,NA,NA,0.00,WeatherLink_script,2013-07-19 06:52:00,
2013-07-19 02:57:00,77.9,72.3,30.06,WSW,257,2.1,4.0,83,0.00,NA,NA,0.00,WeatherLink_script,2013-07-19 06:57:00,
2013-07-19 03:02:00,77.9,72.3,30.06,WSW,257,1.5,3.0,83,0.00,NA,NA,0.00,WeatherLink_script,2013-07-19 07:02:00,
2013-07-19 03:07:00,77.9,72.3,30.06,WSW,257,1.6,3.0,83,0.00,NA,NA,0.00,WeatherLink_script,2013-07-19 07:07:00,
2013-07-19 03:12:00,78.0,72.8,30.06,WSW,249,1.5,3.0,84,0.00,NA,NA,0.00,WeatherLink_script,2013-07-19 07:12:00,
2013-07-19 03:17:00,77.7,72.8,30.06,WSW,249,1.4,3.0,85,0.00,NA,NA,0.00,WeatherLink_script,2013-07-19 07:17:00,
2013-07-19 03:22:00,77.6,72.4,30.06,WSW,249,0.7,3.0,84,0.00,NA,NA,0.00,WeatherLink_script,2013-07-19 07:22:00,
2013-07-19 03:27:00,77.4,72.2,30.06,WSW,250,1.3,3.0,84,0.00,NA,NA,0.00,WeatherLink_script,2013-07-19 07:27:00,
2013-07-19 03:32:00,77.4,72.2,30.05,WSW,249,1.3,3.0,84,0.00,NA,NA,0.00,WeatherLink_script,2013-07-19 07:32:00,
2013-07-19 03:37:00,77.3,72.0,30.06,WSW,249,1.0,2.0,84,0.00,NA,NA,0.00,WeatherLink_script,2013-07-19 07:37:00,
2013-07-19 03:42:00,77.3,72.0,30.06,WSW,249,0.0,0.0,84,0.00,NA,NA,0.00,WeatherLink_script,2013-07-19 07:42:00,
2013-07-19 03:47:00,77.1,71.9,30.06,WSW,249,0.0,0.0,84,0.00,NA,NA,0.00,WeatherLink_script,2013-07-19 07:47:00,
2013-07-19 03:52:00,77.1,71.9,30.06,WSW,249,0.0,0.0,84,0.00,NA,NA,0.00,WeatherLink_script,2013-07-19 07:52:00,
2013-07-19 03:57:00,76.9,71.7,30.06,WSW,249,0.5,2.0,84,0.00,NA,NA,0.00,WeatherLink_script,2013-07-19 07:57:00,
2013-07-19 04:02:00,76.9,72.0,30.06,WSW,249,0.0,0.0,85,0.00,NA,NA,0.00,WeatherLink_script,2013-07-19 08:02:00,
2013-07-19 04:07:00,76.9,71.7,30.06,WSW,250,0.0,0.0,84,0.00,NA,NA,0.00,WeatherLink_script,2013-07-19 08:07:00,
2013-07-19 04:12:00,76.8,71.6,30.06,WSW,249,0.0,0.0,84,0.00,NA,NA,0.00,WeatherLink_script,2013-07-19 08:12:00,
2013-07-19 04:17:00,76.7,71.5,30.06,WSW,249,0.0,0.0,84,0.00,NA,NA,0.00,WeatherLink_script,2013-07-19 08:17:00,
2013-07-19 04:22:00,76.7,71.8,30.06,WSW,249,0.0,0.0,85,0.00,NA,NA,0.00,WeatherLink_script,2013-07-19 08:22:00,
2013-07-19 04:27:00,76.5,71.6,30.06,WSW,249,0.0,0.0,85,0.00,NA,NA,0.00,WeatherLink_script,2013-07-19 08:27:00,
2013-07-19 04:32:00,76.5,71.6,30.06,WSW,250,0.0,0.0,85,0.00,NA,NA,0.00,WeatherLink_script,2013-07-19 08:32:00,
2013-07-19 04:37:00,76.4,71.5,30.06,WSW,249,0.0,0.0,85,0.00,NA,NA,0.00,WeatherLink_script,2013-07-19 08:37:00,
2013-07-19 04:42:00,76.2,71.3,30.06,WSW,249,0.0,0.0,85,0.00,NA,NA,0.00,WeatherLink_script,2013-07-19 08:42:00,
2013-07-19 04:47:00,76.2,71.3,30.06,WSW,249,0.0,0.0,85,0.00,NA,NA,0.00,WeatherLink_script,2013-07-19 08:47:00,
2013-07-19 04:52:00,76.2,71.3,30.06,WSW,249,0.2,1.0,85,0.00,NA,NA,0.00,WeatherLink_script,2013-07-19 08:52:00,
2013-07-19 04:57:00,76.2,71.3,30.06,WSW,249,0.0,0.0,85,0.00,NA,NA,0.00,WeatherLink_script,2013-07-19 08:57:00,
2013-07-19 05:02:00,76.2,71.7,30.06,WSW,249,0.0,0.0,86,0.00,NA,NA,0.00,WeatherLink_script,2013-07-19 09:02:00,
2013-07-19 05:07:00,76.2,71.7,30.06,WSW,250,0.0,0.0,86,0.00,NA,NA,0.00,WeatherLink_script,2013-07-19 09:07:00,
2013-07-19 05:12:00,76.0,71.5,30.06,WSW,250,0.0,0.0,86,0.00,NA,NA,0.00,WeatherLink_script,2013-07-19 09:12:00,
2013-07-19 05:17:00,76.0,71.5,30.06,WSW,249,0.0,0.0,86,0.00,NA,NA,0.00,WeatherLink_script,2013-07-19 09:17:00,
2013-07-19 05:22:00,76.1,71.6,30.06,WSW,249,0.0,0.0,86,0.00,NA,NA,0.00,WeatherLink_script,2013-07-19 09:22:00,
2013-07-19 05:27:00,76.0,71.5,30.06,WSW,249,0.0,0.0,86,0.00,NA,NA,0.00,WeatherLink_script,2013-07-19 09:27:00,
2013-07-19 05:32:00,76.0,71.5,30.06,WSW,250,0.0,0.0,86,0.00,NA,NA,0.00,WeatherLink_script,2013-07-19 09:32:00,
2013-07-19 05:37:00,76.0,71.5,30.06,WSW,249,0.0,0.0,86,0.00,NA,NA,0.00,WeatherLink_script,2013-07-19 09:37:00,
2013-07-19 05:42:00,76.0,71.5,30.06,WSW,250,0.0,0.0,86,0.00,NA,NA,0.00,WeatherLink_script,2013-07-19 09:42:00,
2013-07-19 05:47:00,76.0,71.8,30.06,WSW,249,0.0,0.0,87,0.00,NA,NA,0.00,WeatherLink_script,2013-07-19 09:47:00,
2013-07-19 05:52:00,76.0,71.8,30.06,WSW,250,0.0,0.0,87,0.00,NA,NA,0.00,WeatherLink_script,2013-07-19 09:52:00,
2013-07-19 05:57:00,75.9,71.4,30.06,WSW,249,0.0,0.0,86,0.00,NA,NA,0.00,WeatherLink_script,2013-07-19 09:57:00,
2013-07-19 06:02:00,75.8,71.3,30.06,WSW,249,0.0,0.0,86,0.00,NA,NA,0.00,WeatherLink_script,2013-07-19 10:02:00,
2013-07-19 06:07:00,75.8,71.3,30.06,WSW,249,0.0,0.0,86,0.00,NA,NA,0.00,WeatherLink_script,2013-07-19 10:07:00,
2013-07-19 06:12:00,75.8,71.3,30.06,WSW,249,0.0,0.0,86,0.00,NA,NA,0.00,WeatherLink_script,2013-07-19 10:12:00,
2013-07-19 06:17:00,76.0,71.5,30.06,WSW,249,0.0,0.0,86,0.00,NA,NA,0.00,WeatherLink_script,2013-07-19 10:17:00,
2013-07-19 06:22:00,75.9,71.4,30.06,WSW,250,0.0,0.0,86,0.00,NA,NA,0.00,WeatherLink_script,2013-07-19 10:22:00,
2013-07-19 06:27:00,75.8,71.3,30.06,WSW,249,0.0,0.0,86,0.00,NA,NA,0.00,WeatherLink_script,2013-07-19 10:27:00,
2013-07-19 06:32:00,76.0,71.5,30.05,WSW,250,0.0,0.0,86,0.00,NA,NA,0.00,WeatherLink_script,2013-07-19 10:32:00,
2013-07-19 06:38:00,76.0,71.5,30.05,WSW,250,0.0,0.0,86,0.00,NA,NA,0.00,WeatherLink_script,2013-07-19 10:38:00,
2013-07-19 06:43:00,76.0,71.5,30.06,WSW,249,0.0,0.0,86,0.00,NA,NA,0.00,WeatherLink_script,2013-07-19 10:43:00,
2013-07-19 06:48:00,76.2,71.7,30.06,WSW,249,0.0,0.0,86,0.00,NA,NA,0.00,WeatherLink_script,2013-07-19 10:48:00,
2013-07-19 06:53:00,76.2,71.7,30.06,WSW,249,0.0,0.0,86,0.00,NA,NA,0.00,WeatherLink_script,2013-07-19 10:53:00,
2013-07-19 06:58:00,76.2,71.7,30.06,WSW,249,0.4,1.0,86,0.00,NA,NA,0.00,WeatherLink_script,2013-07-19 10:58:00,
2013-07-19 07:03:00,76.2,72.1,30.06,WSW,249,0.0,0.0,87,0.00,NA,NA,0.00,WeatherLink_script,2013-07-19 11:03:00,
2013-07-19 07:08:00,76.2,72.0,30.06,WSW,250,0.0,0.0,87,0.00,NA,NA,0.00,WeatherLink_script,2013-07-19 11:08:00,
2013-07-19 07:13:00,76.2,72.0,30.06,WSW,249,0.0,0.0,87,0.00,NA,NA,0.00,WeatherLink_script,2013-07-19 11:13:00,
2013-07-19 07:18:00,76.2,72.0,30.06,WSW,250,0.0,0.0,87,0.00,NA,NA,0.00,WeatherLink_script,2013-07-19 11:18:00,
2013-07-19 07:23:00,76.2,72.4,30.06,WSW,249,0.0,0.0,88,0.00,NA,NA,0.00,WeatherLink_script,2013-07-19 11:23:00,
2013-07-19 07:28:00,76.4,72.5,30.06,WSW,249,0.0,0.0,88,0.00,NA,NA,0.00,WeatherLink_script,2013-07-19 11:28:00,
2013-07-19 07:33:00,76.4,72.5,30.06,WSW,249,0.0,0.0,88,0.00,NA,NA,0.00,WeatherLink_script,2013-07-19 11:33:00,
2013-07-19 07:38:00,76.5,72.3,30.06,WSW,250,0.0,0.0,87,0.00,NA,NA,0.00,WeatherLink_script,2013-07-19 11:38:00,
2013-07-19 07:43:00,76.6,72.1,30.06,WSW,249,0.0,0.0,86,0.00,NA,NA,0.00,WeatherLink_script,2013-07-19 11:43:00,
2013-07-19 07:48:00,76.9,72.0,30.06,WSW,249,0.0,0.0,85,0.00,NA,NA,0.00,WeatherLink_script,2013-07-19 11:48:00,
2013-07-19 07:53:00,77.1,72.6,30.06,WSW,249,0.0,0.0,86,0.00,NA,NA,0.00,WeatherLink_script,2013-07-19 11:53:00,
2013-07-19 07:58:00,77.4,72.9,30.06,WSW,249,0.0,0.0,86,0.00,NA,NA,0.00,WeatherLink_script,2013-07-19 11:58:00,
2013-07-19 08:03:00,77.6,72.7,30.06,WSW,249,0.0,0.0,85,0.00,NA,NA,0.00,WeatherLink_script,2013-07-19 12:03:00,
2013-07-19 08:08:00,77.8,72.6,30.06,WSW,249,0.0,0.0,84,0.00,NA,NA,0.00,WeatherLink_script,2013-07-19 12:08:00,
2013-07-19 08:13:00,78.0,72.7,30.06,WSW,249,0.0,0.0,84,0.00,NA,NA,0.00,WeatherLink_script,2013-07-19 12:13:00,
2013-07-19 08:18:00,78.1,72.9,30.07,WSW,249,0.0,0.0,84,0.00,NA,NA,0.00,WeatherLink_script,2013-07-19 12:18:00,
2013-07-19 08:23:00,78.3,73.8,30.07,WSW,249,0.0,0.0,86,0.00,NA,NA,0.00,WeatherLink_script,2013-07-19 12:23:00,
2013-07-19 08:28:00,78.3,73.8,30.07,WSW,249,0.0,0.0,86,0.00,NA,NA,0.00,WeatherLink_script,2013-07-19 12:28:00,
2013-07-19 08:33:00,78.3,73.4,30.07,WSW,249,0.0,0.0,85,0.00,NA,NA,0.00,WeatherLink_script,2013-07-19 12:33:00,
2013-07-19 08:38:00,78.6,74.1,30.07,WSW,249,0.6,1.0,86,0.00,NA,NA,0.00,WeatherLink_script,2013-07-19 12:38:00,
2013-07-19 08:43:00,78.9,73.9,30.07,WSW,249,0.8,2.0,85,0.00,NA,NA,0.00,WeatherLink_script,2013-07-19 12:43:00,
2013-07-19 08:48:00,79.0,74.5,30.07,WSW,250,0.3,3.0,86,0.00,NA,NA,0.00,WeatherLink_script,2013-07-19 12:48:00,
2013-07-19 08:53:00,79.1,73.8,30.07,WSW,249,0.6,2.0,84,0.00,NA,NA,0.00,WeatherLink_script,2013-07-19 12:53:00,
2013-07-19 08:58:00,79.3,74.4,30.07,WSW,249,1.0,2.0,85,0.00,NA,NA,0.00,WeatherLink_script,2013-07-19 12:58:00,
2013-07-19 09:03:00,79.6,74.7,30.07,WSW,250,0.3,2.0,85,0.00,NA,NA,0.00,WeatherLink_script,2013-07-19 13:03:00,
2013-07-19 09:08:00,80.0,75.1,30.07,WSW,249,0.0,0.0,85,0.00,NA,NA,0.00,WeatherLink_script,2013-07-19 13:08:00,
2013-07-19 09:13:00,80.5,74.8,30.07,WSW,245,1.0,2.0,83,0.00,NA,NA,0.00,WeatherLink_script,2013-07-19 13:13:00,
2013-07-19 09:18:00,81.1,75.4,30.07,WSW,245,0.0,0.0,83,0.00,NA,NA,0.00,WeatherLink_script,2013-07-19 13:18:00,
2013-07-19 09:23:00,82.0,75.5,30.07,WSW,245,0.4,2.0,81,0.00,NA,NA,0.00,WeatherLink_script,2013-07-19 13:23:00,
2013-07-19 09:27:00,82.4,75.2,30.07,WSW,245,1.4,3.0,79,0.00,NA,NA,0.00,WeatherLink_script,2013-07-19 13:27:00,
2013-07-19 09:32:00,83.2,75.6,30.07,WSW,245,0.6,1.0,78,0.00,NA,NA,0.00,WeatherLink_script,2013-07-19 13:32:00,
2013-07-19 09:37:00,83.8,76.2,30.07,WSW,245,0.1,1.0,78,0.00,NA,NA,0.00,WeatherLink_script,2013-07-19 13:37:00,
2013-07-19 09:42:00,84.6,76.6,30.07,WSW,245,0.4,1.0,77,0.00,NA,NA,0.00,WeatherLink_script,2013-07-19 13:42:00,
2013-07-19 09:47:00,85.2,77.1,30.07,WSW,245,2.1,3.0,77,0.00,NA,NA,0.00,WeatherLink_script,2013-07-19 13:47:00,
2013-07-19 09:52:00,85.8,76.5,30.07,WSW,245,0.2,1.0,74,0.00,NA,NA,0.00,WeatherLink_script,2013-07-19 13:52:00,
2013-07-19 09:57:00,86.2,76.9,30.07,WSW,245,0.4,1.0,74,0.00,NA,NA,0.00,WeatherLink_script,2013-07-19 13:57:00,
2013-07-19 10:02:00,87.0,76.8,30.07,WSW,245,0.4,1.0,72,0.00,NA,NA,0.00,WeatherLink_script,2013-07-19 14:02:00,
2013-07-19 10:07:00,87.3,78.0,30.07,WSW,245,0.0,0.0,74,0.00,NA,NA,0.00,WeatherLink_script,2013-07-19 14:07:00,
2013-07-19 10:12:00,87.9,78.5,30.07,WSW,245,0.3,1.0,74,0.00,NA,NA,0.00,WeatherLink_script,2013-07-19 14:12:00,
2013-07-19 10:17:00,88.2,78.1,30.06,WSW,245,0.8,2.0,72,0.00,NA,NA,0.00,WeatherLink_script,2013-07-19 14:17:00,
2013-07-19 10:22:00,88.5,78.3,30.06,WSW,245,0.3,1.0,72,0.00,NA,NA,0.00,WeatherLink_script,2013-07-19 14:22:00,
2013-07-19 10:27:00,88.8,78.6,30.06,WSW,245,1.0,2.0,72,0.00,NA,NA,0.00,WeatherLink_script,2013-07-19 14:27:00,
2013-07-19 10:32:00,89.0,78.8,30.06,WSW,245,0.4,1.0,72,0.00,NA,NA,0.00,WeatherLink_script,2013-07-19 14:32:00,
2013-07-19 10:37:00,89.3,77.3,30.06,WSW,245,0.9,2.0,68,0.00,NA,NA,0.00,WeatherLink_script,2013-07-19 14:37:00,
2013-07-19 10:42:00,89.4,78.3,30.06,WSW,245,0.3,1.0,70,0.00,NA,NA,0.00,WeatherLink_script,2013-07-19 14:42:00,
2013-07-19 10:47:00,89.7,78.6,30.06,WSW,245,1.6,3.0,70,0.00,NA,NA,0.00,WeatherLink_script,2013-07-19 14:47:00,
2013-07-19 10:52:00,89.9,79.2,30.06,WSW,245,1.0,2.0,71,0.00,NA,NA,0.00,WeatherLink_script,2013-07-19 14:52:00,
2013-07-19 10:57:00,89.9,78.3,30.06,WSW,248,1.2,2.0,69,0.00,NA,NA,0.00,WeatherLink_script,2013-07-19 14:57:00,
2013-07-19 11:02:00,90.1,78.1,30.06,WSW,248,1.1,3.0,68,0.00,NA,NA,0.00,WeatherLink_script,2013-07-19 15:02:00,
2013-07-19 11:07:00,90.3,77.4,30.06,WSW,248,0.4,2.0,66,0.00,NA,NA,0.00,WeatherLink_script,2013-07-19 15:07:00,
2013-07-19 11:12:00,90.5,78.0,30.06,WSW,248,1.4,3.0,67,0.00,NA,NA,0.00,WeatherLink_script,2013-07-19 15:12:00,
2013-07-19 11:17:00,90.6,78.6,30.06,WSW,248,0.8,2.0,68,0.00,NA,NA,0.00,WeatherLink_script,2013-07-19 15:17:00,
2013-07-19 11:22:00,90.7,79.6,30.06,WSW,248,0.7,2.0,70,0.00,NA,NA,0.00,WeatherLink_script,2013-07-19 15:22:00,
2013-07-19 11:27:00,91.0,78.9,30.05,WSW,248,0.5,1.0,68,0.00,NA,NA,0.00,WeatherLink_script,2013-07-19 15:27:00,
2013-07-19 11:32:00,91.2,78.7,30.06,WSW,248,1.5,2.0,67,0.00,NA,NA,0.00,WeatherLink_script,2013-07-19 15:32:00,
2013-07-19 11:37:00,91.4,77.9,30.05,WSW,248,0.0,0.0,65,0.00,NA,NA,0.00,WeatherLink_script,2013-07-19 15:37:00,
2013-07-19 11:42:00,91.4,77.0,30.05,WSW,248,0.3,2.0,63,0.00,NA,NA,0.00,WeatherLink_script,2013-07-19 15:42:00,
2013-07-19 11:47:00,91.6,79.1,30.05,WSW,248,0.7,3.0,67,0.00,NA,NA,0.00,WeatherLink_script,2013-07-19 15:47:00,
2013-07-19 11:52:00,91.3,78.7,30.05,SW,215,1.0,3.0,67,0.00,NA,NA,0.00,WeatherLink_script,2013-07-19 15:52:00,
2013-07-19 11:57:00,91.0,79.8,30.05,NW,304,1.5,3.0,70,0.00,NA,NA,0.00,WeatherLink_script,2013-07-19 15:57:00,
2013-07-19 12:02:00,91.2,79.6,30.05,West,263,1.7,3.0,69,0.00,NA,NA,0.00,WeatherLink_script,2013-07-19 16:02:00,
2013-07-19 12:07:00,91.4,80.2,30.05,West,263,1.3,2.0,70,0.00,NA,NA,0.00,WeatherLink_script,2013-07-19 16:07:00,
2013-07-19 12:12:00,91.8,81.1,30.05,WSW,245,2.4,4.0,71,0.00,NA,NA,0.00,WeatherLink_script,2013-07-19 16:12:00,
2013-07-19 12:17:00,91.9,79.4,30.05,WSW,248,0.8,2.0,67,0.00,NA,NA,0.00,WeatherLink_script,2013-07-19 16:17:00,
2013-07-19 12:22:00,92.1,80.9,30.05,WSW,248,1.9,4.0,70,0.00,NA,NA,0.00,WeatherLink_script,2013-07-19 16:22:00,
2013-07-19 12:27:00,92.3,81.5,30.05,WSW,248,1.5,4.0,71,0.00,NA,NA,0.00,WeatherLink_script,2013-07-19 16:27:00,
2013-07-19 12:32:00,92.3,79.7,30.05,WSW,245,2.4,4.0,67,0.00,NA,NA,0.00,WeatherLink_script,2013-07-19 16:32:00,
2013-07-19 12:37:00,92.0,80.8,30.04,WSW,245,2.1,4.0,70,0.00,NA,NA,0.00,WeatherLink_script,2013-07-19 16:37:00,
2013-07-19 12:42:00,92.1,80.0,30.04,WSW,242,1.8,3.0,68,0.00,NA,NA,0.00,WeatherLink_script,2013-07-19 16:42:00,
2013-07-19 12:47:00,92.0,78.9,30.04,WSW,253,1.8,3.0,66,0.00,NA,NA,0.00,WeatherLink_script,2013-07-19 16:47:00,
2013-07-19 12:52:00,92.1,79.5,30.04,WSW,248,1.7,4.0,67,0.00,NA,NA,0.00,WeatherLink_script,2013-07-19 16:52:00,
2013-07-19 12:57:00,92.2,79.6,30.04,WSW,248,2.0,3.0,67,0.00,NA,NA,0.00,WeatherLink_script,2013-07-19 16:57:00,
2013-07-19 13:02:00,92.3,77.8,30.03,WSW,243,2.1,4.0,63,0.00,NA,NA,0.00,WeatherLink_script,2013-07-19 17:02:00,
2013-07-19 13:07:00,92.5,78.5,30.03,WSW,243,0.3,2.0,64,0.00,NA,NA,0.00,WeatherLink_script,2013-07-19 17:07:00,
2013-07-19 13:12:00,92.5,79.0,30.03,SW,229,2.1,3.0,65,0.00,NA,NA,0.00,WeatherLink_script,2013-07-19 17:12:00,
2013-07-19 13:17:00,92.5,79.4,30.03,SW,235,1.8,3.0,66,0.00,NA,NA,0.00,WeatherLink_script,2013-07-19 17:17:00,
2013-07-19 13:22:00,92.5,79.0,30.03,SW,228,2.1,4.0,65,0.00,NA,NA,0.00,WeatherLink_script,2013-07-19 17:22:00,
2013-07-19 13:27:00,92.7,77.7,30.03,SW,235,2.7,4.0,62,0.00,NA,NA,0.00,WeatherLink_script,2013-07-19 17:27:00,
2013-07-19 13:32:00,92.7,78.7,30.03,South,171,1.6,3.0,64,0.00,NA,NA,0.00,WeatherLink_script,2013-07-19 17:32:00,
2013-07-19 13:37:00,93.0,79.0,30.03,WNW,295,1.9,3.0,64,0.00,NA,NA,0.00,WeatherLink_script,2013-07-19 17:37:00,
2013-07-19 13:42:00,93.0,78.5,30.02,WSW,250,1.7,4.0,63,0.00,NA,NA,0.00,WeatherLink_script,2013-07-19 17:42:00,
2013-07-19 13:47:00,92.7,77.7,30.02,SW,216,1.3,3.0,62,0.00,NA,NA,0.00,WeatherLink_script,2013-07-19 17:47:00,
2013-07-19 13:52:00,92.0,77.0,30.02,SW,216,1.7,3.0,62,0.00,NA,NA,0.00,WeatherLink_script,2013-07-19 17:52:00,
2013-07-19 13:57:00,90.9,76.0,30.02,SW,219,0.6,1.0,62,0.00,NA,NA,0.00,WeatherLink_script,2013-07-19 17:57:00,
2013-07-19 14:02:00,89.7,76.8,30.01,SW,218,1.5,3.0,66,0.00,NA,NA,0.00,WeatherLink_script,2013-07-19 18:02:00,
2013-07-19 14:07:00,89.1,76.2,30.01,SW,218,0.8,2.0,66,0.00,NA,NA,0.00,WeatherLink_script,2013-07-19 18:07:00,
2013-07-19 14:12:00,88.5,77.4,30.02,SW,219,0.2,1.0,70,0.00,NA,NA,0.00,WeatherLink_script,2013-07-19 18:12:00,
2013-07-19 14:17:00,88.2,76.8,30.01,SW,218,0.7,2.0,69,0.00,NA,NA,0.00,WeatherLink_script,2013-07-19 18:17:00,
2013-07-19 14:22:00,88.1,77.5,30.01,SW,219,0.0,0.0,71,0.00,NA,NA,0.00,WeatherLink_script,2013-07-19 18:22:00,
2013-07-19 14:27:00,88.1,77.0,30.01,SW,219,0.6,2.0,70,0.00,NA,NA,0.00,WeatherLink_script,2013-07-19 18:27:00,
2013-07-19 14:32:00,88.0,77.8,30.00,SW,219,0.6,2.0,72,0.00,NA,NA,0.00,WeatherLink_script,2013-07-19 18:32:00,
2013-07-19 14:37:00,88.1,77.9,30.00,SW,220,2.0,3.0,72,0.00,NA,NA,0.00,WeatherLink_script,2013-07-19 18:37:00,
2013-07-19 14:42:00,88.6,78.8,30.00,SW,220,1.1,2.0,73,0.00,NA,NA,0.00,WeatherLink_script,2013-07-19 18:42:00,
2013-07-19 14:47:00,88.9,78.7,29.99,SW,220,1.0,2.0,72,0.00,NA,NA,0.00,WeatherLink_script,2013-07-19 18:47:00,
2013-07-19 14:52:00,89.3,78.6,29.99,SW,234,2.6,5.0,71,0.00,NA,NA,0.00,WeatherLink_script,2013-07-19 18:52:00,
2013-07-19 14:57:00,89.7,79.0,29.99,WSW,244,1.8,2.0,71,0.00,NA,NA,0.00,WeatherLink_script,2013-07-19 18:57:00,
2013-07-19 15:02:00,90.1,78.6,29.98,West,262,2.4,4.0,69,0.00,NA,NA,0.00,WeatherLink_script,2013-07-19 19:02:00,
2013-07-19 15:07:00,90.3,77.4,29.98,West,262,2.3,4.0,66,0.00,NA,NA,0.00,WeatherLink_script,2013-07-19 19:07:00,
2013-07-19 15:12:00,90.1,77.2,29.99,SW,223,3.5,8.0,66,0.00,NA,NA,0.00,WeatherLink_script,2013-07-19 19:12:00,
2013-07-19 15:17:00,89.9,77.9,29.99,SW,221,1.4,3.0,68,0.00,NA,NA,0.00,WeatherLink_script,2013-07-19 19:17:00,
2013-07-19 15:22:00,90.1,78.9,29.98,West,264,2.8,6.0,70,0.00,NA,NA,0.00,WeatherLink_script,2013-07-19 19:22:00,
2013-07-19 15:27:00,90.3,79.6,29.98,SW,236,1.2,2.0,71,0.00,NA,NA,0.00,WeatherLink_script,2013-07-19 19:27:00,
2013-07-19 15:32:00,90.5,79.3,29.98,SW,236,1.5,3.0,70,0.00,NA,NA,0.00,WeatherLink_script,2013-07-19 19:32:00,
2013-07-19 15:37:00,90.7,78.6,29.98,South,189,2.5,4.0,68,0.00,NA,NA,0.00,WeatherLink_script,2013-07-19 19:37:00,
2013-07-19 15:42:00,90.8,77.4,29.97,SSW,196,2.1,3.0,65,0.00,NA,NA,0.00,WeatherLink_script,2013-07-19 19:42:00,
2013-07-19 15:47:00,90.7,77.7,29.98,WSW,248,1.8,3.0,66,0.00,NA,NA,0.00,WeatherLink_script,2013-07-19 19:47:00,
2013-07-19 15:52:00,90.5,78.5,29.98,West,276,2.5,5.0,68,0.00,NA,NA,0.00,WeatherLink_script,2013-07-19 19:52:00,
2013-07-19 15:57:00,90.7,79.1,29.97,WNW,296,1.2,3.0,69,0.00,NA,NA,0.00,WeatherLink_script,2013-07-19 19:57:00,
2013-07-19 16:02:00,90.7,77.3,29.97,NW,309,2.1,4.0,65,0.00,NA,NA,0.00,WeatherLink_script,2013-07-19 20:02:00,
2013-07-19 16:07:00,90.7,78.6,29.96,West,263,2.8,4.0,68,0.00,NA,NA,0.00,WeatherLink_script,2013-07-19 20:07:00,
2013-07-19 16:12:00,90.5,77.1,29.97,West,263,2.3,4.0,65,0.00,NA,NA,0.00,WeatherLink_script,2013-07-19 20:12:00,
2013-07-19 16:17:00,90.5,77.1,29.97,SW,231,2.9,7.0,65,0.00,NA,NA,0.00,WeatherLink_script,2013-07-19 20:17:00,
2013-07-19 16:22:00,90.3,76.9,29.97,SW,219,1.9,5.0,65,0.00,NA,NA,0.00,WeatherLink_script,2013-07-19 20:22:00,
2013-07-19 16:27:00,90.2,77.7,29.98,SW,235,1.0,2.0,67,0.00,NA,NA,0.00,WeatherLink_script,2013-07-19 20:27:00,
2013-07-19 16:32:00,90.3,77.4,29.99,SW,232,0.9,2.0,66,0.00,NA,NA,0.00,WeatherLink_script,2013-07-19 20:32:00,
2013-07-19 16:37:00,90.1,77.2,30.00,SSW,194,2.8,5.0,66,0.00,NA,NA,0.00,WeatherLink_script,2013-07-19 20:37:00,
2013-07-19 16:42:00,89.9,77.9,30.00,SW,228,1.2,3.0,68,0.00,NA,NA,0.00,WeatherLink_script,2013-07-19 20:42:00,
2013-07-19 16:47:00,89.5,77.5,29.99,SW,222,1.6,3.0,68,0.00,NA,NA,0.00,WeatherLink_script,2013-07-19 20:47:00,
2013-07-19 16:52:00,89.5,78.8,29.99,WSW,240,0.7,1.0,71,0.00,NA,NA,0.00,WeatherLink_script,2013-07-19 20:52:00,
2013-07-19 16:57:00,89.3,77.8,29.99,WSW,240,0.3,2.0,69,0.00,NA,NA,0.00,WeatherLink_script,2013-07-19 20:57:00,
2013-07-19 17:02:00,89.2,77.6,29.98,SW,224,1.4,2.0,69,0.00,NA,NA,0.00,WeatherLink_script,2013-07-19 21:02:00,
2013-07-19 17:07:00,89.0,77.9,29.98,SW,221,2.1,3.0,70,0.00,NA,NA,0.00,WeatherLink_script,2013-07-19 21:07:00,
2013-07-19 17:12:00,88.7,77.2,29.98,SW,220,1.6,3.0,69,0.00,NA,NA,0.00,WeatherLink_script,2013-07-19 21:12:00,
2013-07-19 17:17:00,88.3,76.8,29.98,SW,222,1.0,2.0,69,0.00,NA,NA,0.00,WeatherLink_script,2013-07-19 21:17:00,
2013-07-19 17:22:00,88.0,76.6,29.98,SW,217,1.4,2.0,69,0.00,NA,NA,0.00,WeatherLink_script,2013-07-19 21:22:00,
2013-07-19 17:27:00,87.6,76.1,29.97,SW,218,0.5,1.0,69,0.00,NA,NA,0.00,WeatherLink_script,2013-07-19 21:27:00,
2013-07-19 17:32:00,87.2,76.6,29.97,SW,218,0.8,2.0,71,0.00,NA,NA,0.00,WeatherLink_script,2013-07-19 21:32:00,
2013-07-19 17:37:00,86.9,76.4,29.97,SW,218,0.8,3.0,71,0.00,NA,NA,0.00,WeatherLink_script,2013-07-19 21:37:00,
2013-07-19 17:42:00,86.6,76.5,29.97,SW,218,0.7,1.0,72,0.00,NA,NA,0.00,WeatherLink_script,2013-07-19 21:42:00,
2013-07-19 17:47:00,86.4,77.1,29.97,SW,218,0.0,0.0,74,0.00,NA,NA,0.00,WeatherLink_script,2013-07-19 21:47:00,
2013-07-19 17:52:00,86.2,76.9,29.98,SW,218,0.7,2.0,74,0.00,NA,NA,0.00,WeatherLink_script,2013-07-19 21:52:00,
2013-07-19 17:57:00,85.7,77.2,29.98,SW,218,0.9,2.0,76,0.00,NA,NA,0.00,WeatherLink_script,2013-07-19 21:57:00,
2013-07-19 18:02:00,85.5,77.5,29.98,SW,218,0.5,3.0,77,0.00,NA,NA,0.00,WeatherLink_script,2013-07-19 22:02:00,
2013-07-19 18:07:00,85.2,77.5,29.98,SW,218,0.1,1.0,78,0.00,NA,NA,0.00,WeatherLink_script,2013-07-19 22:07:00,
2013-07-19 18:12:00,85.0,77.3,29.98,SW,218,1.2,2.0,78,0.00,NA,NA,0.00,WeatherLink_script,2013-07-19 22:12:00,
2013-07-19 18:17:00,84.6,77.0,29.97,SW,218,1.6,3.0,78,0.00,NA,NA,0.00,WeatherLink_script,2013-07-19 22:17:00,
2013-07-19 18:22:00,84.4,77.2,29.97,SW,218,1.1,2.0,79,0.00,NA,NA,0.00,WeatherLink_script,2013-07-19 22:22:00,
2013-07-19 18:27:00,84.0,76.4,29.97,SW,221,1.2,2.0,78,0.00,NA,NA,0.00,WeatherLink_script,2013-07-19 22:27:00,
2013-07-19 18:32:00,83.7,75.7,29.97,West,262,1.5,3.0,77,0.00,NA,NA,0.00,WeatherLink_script,2013-07-19 22:32:00,
2013-07-19 18:37:00,83.4,75.8,29.97,West,262,0.0,0.0,78,0.00,NA,NA,0.00,WeatherLink_script,2013-07-19 22:37:00,
2013-07-19 18:42:00,83.2,76.0,29.96,West,262,0.0,0.0,79,0.00,NA,NA,0.00,WeatherLink_script,2013-07-19 22:42:00,
2013-07-19 18:47:00,83.0,75.8,29.96,West,262,0.1,1.0,79,0.00,NA,NA,0.00,WeatherLink_script,2013-07-19 22:47:00,
2013-07-19 18:52:00,82.8,76.0,29.96,West,262,0.0,0.0,80,0.00,NA,NA,0.00,WeatherLink_script,2013-07-19 22:52:00,
2013-07-19 18:58:00,82.4,75.2,29.96,West,262,0.6,1.0,79,0.00,NA,NA,0.00,WeatherLink_script,2013-07-19 22:58:00,
2013-07-19 19:03:00,82.2,75.0,29.96,West,262,0.4,2.0,79,0.00,NA,NA,0.00,WeatherLink_script,2013-07-19 23:03:00,
2013-07-19 19:08:00,82.2,75.4,29.96,West,262,0.0,0.0,80,0.00,NA,NA,0.00,WeatherLink_script,2013-07-19 23:08:00,
2013-07-19 19:13:00,82.1,75.7,29.96,West,262,0.5,2.0,81,0.00,NA,NA,0.00,WeatherLink_script,2013-07-19 23:13:00,
2013-07-19 19:18:00,81.8,75.4,29.96,West,262,1.1,2.0,81,0.00,NA,NA,0.00,WeatherLink_script,2013-07-19 23:18:00,
2013-07-19 19:23:00,81.6,75.2,29.96,West,262,0.6,3.0,81,0.00,NA,NA,0.00,WeatherLink_script,2013-07-19 23:23:00,
2013-07-19 19:28:00,81.5,74.7,29.96,West,262,0.7,3.0,80,0.00,NA,NA,0.00,WeatherLink_script,2013-07-19 23:28:00,
2013-07-19 19:33:00,81.3,74.9,29.96,West,262,0.0,0.0,81,0.00,NA,NA,0.00,WeatherLink_script,2013-07-19 23:33:00,
2013-07-19 19:38:00,81.3,74.5,29.96,West,266,0.2,2.0,80,0.00,NA,NA,0.00,WeatherLink_script,2013-07-19 23:38:00,
2013-07-19 19:43:00,81.1,74.0,29.97,West,266,0.0,0.0,79,0.00,NA,NA,0.00,WeatherLink_script,2013-07-19 23:43:00,
2013-07-19 19:48:00,81.0,73.9,29.96,SE,134,0.0,0.0,79,0.00,NA,NA,0.00,WeatherLink_script,2013-07-19 23:48:00,
2013-07-19 19:53:00,80.9,74.1,29.97,SE,133,0.0,0.0,80,0.00,NA,NA,0.00,WeatherLink_script,2013-07-19 23:53:00,
2013-07-19 19:58:00,80.7,73.9,29.97,SE,134,0.0,0.0,80,0.00,NA,NA,0.00,WeatherLink_script,2013-07-19 23:58:00,
2013-07-19 20:03:00,80.7,73.9,29.97,SE,134,0.2,1.0,80,0.00,NA,NA,0.00,WeatherLink_script,2013-07-20 00:03:00,
2013-07-19 20:08:00,80.5,73.7,29.98,SE,134,0.0,0.0,80,0.00,NA,NA,0.00,WeatherLink_script,2013-07-20 00:08:00,
2013-07-19 20:13:00,80.3,74.0,29.97,SE,134,0.5,2.0,81,0.00,NA,NA,0.00,WeatherLink_script,2013-07-20 00:13:00,
2013-07-19 20:18:00,80.2,73.5,29.98,SE,133,0.2,1.0,80,0.00,NA,NA,0.00,WeatherLink_script,2013-07-20 00:18:00,
2013-07-19 20:23:00,80.1,73.4,29.98,SE,134,0.0,0.0,80,0.00,NA,NA,0.00,WeatherLink_script,2013-07-20 00:23:00,
2013-07-19 20:28:00,80.0,73.2,29.98,SE,134,0.0,0.0,80,0.00,NA,NA,0.00,WeatherLink_script,2013-07-20 00:28:00,
2013-07-19 20:33:00,79.9,72.8,29.98,SE,134,0.0,0.0,79,0.00,NA,NA,0.00,WeatherLink_script,2013-07-20 00:33:00,
2013-07-19 20:38:00,79.8,72.7,29.98,SE,134,0.0,0.0,79,0.00,NA,NA,0.00,WeatherLink_script,2013-07-20 00:38:00,
2013-07-19 20:43:00,79.8,72.7,29.98,SE,134,0.0,0.0,79,0.00,NA,NA,0.00,WeatherLink_script,2013-07-20 00:43:00,
2013-07-19 20:48:00,79.8,72.7,29.98,SE,133,0.1,1.0,79,0.00,NA,NA,0.00,WeatherLink_script,2013-07-20 00:48:00,
2013-07-19 20:53:00,79.6,72.9,29.98,SE,133,0.4,2.0,80,0.00,NA,NA,0.00,WeatherLink_script,2013-07-20 00:53:00,
2013-07-19 20:58:00,79.5,72.8,29.98,East,83,0.0,0.0,80,0.00,NA,NA,0.00,WeatherLink_script,2013-07-20 00:58:00,
2013-07-19 20:59:00,79.5,72.8,29.98,East,83,0.0,0.0,80,0.00,NA,NA,0.00,WeatherLink_script,2013-07-20 00:59:00,
2013-07-19 21:04:00,79.4,72.6,29.98,East,83,0.0,0.0,80,0.00,NA,NA,0.00,WeatherLink_script,2013-07-20 01:04:00,
2013-07-19 21:09:00,79.2,72.1,29.98,East,83,0.0,0.0,79,0.00,NA,NA,0.00,WeatherLink_script,2013-07-20 01:09:00,
2013-07-19 21:14:00,79.2,72.5,29.99,East,83,0.0,0.0,80,0.00,NA,NA,0.00,WeatherLink_script,2013-07-20 01:14:00,
2013-07-19 21:19:00,79.1,72.4,29.99,East,83,0.0,0.0,80,0.00,NA,NA,0.00,WeatherLink_script,2013-07-20 01:19:00,
2013-07-19 21:24:00,78.9,73.0,29.99,East,83,0.0,0.0,82,0.00,NA,NA,0.00,WeatherLink_script,2013-07-20 01:24:00,
2013-07-19 21:29:00,78.7,72.8,29.99,East,83,0.0,0.0,82,0.00,NA,NA,0.00,WeatherLink_script,2013-07-20 01:29:00,
2013-07-19 21:34:00,78.5,72.6,29.99,East,83,0.0,0.0,82,0.00,NA,NA,0.00,WeatherLink_script,2013-07-20 01:34:00,
2013-07-19 21:39:00,78.5,72.2,29.99,East,83,0.0,0.0,81,0.00,NA,NA,0.00,WeatherLink_script,2013-07-20 01:39:00,
2013-07-19 21:44:00,78.4,71.3,29.99,East,83,0.0,0.0,79,0.00,NA,NA,0.00,WeatherLink_script,2013-07-20 01:44:00,
2013-07-19 21:49:00,78.7,71.6,29.99,East,83,0.0,0.0,79,0.00,NA,NA,0.00,WeatherLink_script,2013-07-20 01:49:00,
2013-07-19 21:54:00,78.8,72.1,30.00,East,83,0.0,0.0,80,0.00,NA,NA,0.00,WeatherLink_script,2013-07-20 01:54:00,
2013-07-19 21:59:00,78.9,72.2,30.00,East,82,0.1,1.0,80,0.00,NA,NA,0.00,WeatherLink_script,2013-07-20 01:59:00,
2013-07-19 22:04:00,78.9,72.2,30.00,East,83,0.0,0.0,80,0.00,NA,NA,0.00,WeatherLink_script,2013-07-20 02:04:00,
2013-07-19 22:09:00,78.8,72.1,30.00,East,83,0.0,0.0,80,0.00,NA,NA,0.00,WeatherLink_script,2013-07-20 02:09:00,
2013-07-19 22:14:00,78.7,72.4,30.00,East,83,0.0,0.0,81,0.00,NA,NA,0.00,WeatherLink_script,2013-07-20 02:14:00,
2013-07-19 22:19:00,78.7,72.4,30.00,East,83,0.0,0.0,81,0.00,NA,NA,0.00,WeatherLink_script,2013-07-20 02:19:00,
2013-07-19 22:24:00,78.7,72.4,30.00,East,83,0.0,0.0,81,0.00,NA,NA,0.00,WeatherLink_script,2013-07-20 02:24:00,
2013-07-19 22:29:00,78.5,72.2,30.00,East,83,0.0,0.0,81,0.00,NA,NA,0.00,WeatherLink_script,2013-07-20 02:29:00,
2013-07-19 22:34:00,78.6,72.3,30.00,East,83,0.0,0.0,81,0.00,NA,NA,0.00,WeatherLink_script,2013-07-20 02:34:00,
2013-07-19 22:39:00,78.6,72.6,30.00,East,82,0.0,0.0,82,0.00,NA,NA,0.00,WeatherLink_script,2013-07-20 02:39:00,
2013-07-19 22:44:00,78.6,72.7,29.99,East,82,0.0,0.0,82,0.00,NA,NA,0.00,WeatherLink_script,2013-07-20 02:44:00,
2013-07-19 22:49:00,78.6,72.7,29.99,East,83,0.0,0.0,82,0.00,NA,NA,0.00,WeatherLink_script,2013-07-20 02:49:00,
2013-07-19 22:54:00,78.6,73.0,29.99,East,83,0.0,0.0,83,0.00,NA,NA,0.00,WeatherLink_script,2013-07-20 02:54:00,
2013-07-19 22:59:00,78.5,72.9,29.99,East,82,0.3,1.0,83,0.00,NA,NA,0.00,WeatherLink_script,2013-07-20 02:59:00,
2013-07-19 23:04:00,78.5,72.9,29.99,East,83,0.0,0.0,83,0.00,NA,NA,0.00,WeatherLink_script,2013-07-20 03:04:00,
2013-07-19 23:09:00,78.3,72.7,29.99,East,89,0.6,2.0,83,0.00,NA,NA,0.00,WeatherLink_script,2013-07-20 03:09:00,
2013-07-19 23:14:00,78.3,72.3,29.99,SE,124,0.7,2.0,82,0.00,NA,NA,0.00,WeatherLink_script,2013-07-20 03:14:00,
2013-07-19 23:19:00,78.3,72.3,29.98,SE,124,1.5,3.0,82,0.00,NA,NA,0.00,WeatherLink_script,2013-07-20 03:19:00,
2013-07-19 23:24:00,78.3,72.7,29.98,SE,124,0.3,1.0,83,0.00,NA,NA,0.00,WeatherLink_script,2013-07-20 03:24:00,
2013-07-19 23:29:00,78.1,72.1,29.97,SE,124,0.4,1.0,82,0.00,NA,NA,0.00,WeatherLink_script,2013-07-20 03:29:00,
2013-07-19 23:34:00,78.1,72.5,29.97,SE,124,0.2,1.0,83,0.00,NA,NA,0.00,WeatherLink_script,2013-07-20 03:34:00,
2013-07-19 23:39:00,77.9,72.7,29.97,SE,124,0.0,0.0,84,0.00,NA,NA,0.00,WeatherLink_script,2013-07-20 03:39:00,
2013-07-19 23:44:00,77.8,72.9,29.96,SE,125,0.0,0.0,85,0.00,NA,NA,0.00,WeatherLink_script,2013-07-20 03:44:00,
2013-07-19 23:49:00,77.8,73.3,29.96,SE,124,0.2,1.0,86,0.00,NA,NA,0.00,WeatherLink_script,2013-07-20 03:49:00,
2013-07-19 23:54:00,77.7,73.5,29.96,SE,124,0.3,1.0,87,0.00,NA,NA,0.00,WeatherLink_script,2013-07-20 03:54:00,
2013-07-19 23:59:00,77.6,73.4,29.95,SE,124,1.3,3.0,87,0.00,NA,NA,0.00,WeatherLink_script,2013-07-20 03:59:00,